sensor_id;sensor_type;location;lat;lon;timestamp;temperature;humidity
27707;DHT22;36332;51.384;0.040;2023-07-16T00:00:24;16.30;99.90
27707;DHT22;36332;51.384;0.040;2023-07-16T00:02:55;16.30;99.90
27707;DHT22;36332;51.384;0.040;2023-07-16T00:05:23;16.40;99.90
27707;DHT22;36332;51.384;0.040;2023-07-16T00:10:19;16.30;99.90
27707;DHT22;36332;51.384;0.040;2023-07-16T00:12:46;16.30;99.90
27707;DHT22;36332;51.384;0.040;2023-07-16T00:17:42;16.30;99.90
27707;DHT22;36332;51.384;0.040;2023-07-16T00:20:10;16.40;99.90
27707;DHT22;36332;51.384;0.040;2023-07-16T00:22:38;16.40;99.90
27707;DHT22;36332;51.384;0.040;2023-07-16T00:25:07;16.40;99.90
27707;DHT22;36332;51.384;0.040;2023-07-16T00:27:35;16.40;99.90
27707;DHT22;36332;51.384;0.040;2023-07-16T00:30:03;16.40;99.90
27707;DHT22;36332;51.384;0.040;2023-07-16T00:32:31;16.40;99.90
27707;DHT22;36332;51.384;0.040;2023-07-16T00:35:00;16.40;99.90
27707;DHT22;36332;51.384;0.040;2023-07-16T00:37:28;16.40;99.90
27707;DHT22;36332;51.384;0.040;2023-07-16T00:39:56;16.30;99.90
27707;DHT22;36332;51.384;0.040;2023-07-16T00:42:23;16.20;99.90
27707;DHT22;36332;51.384;0.040;2023-07-16T00:44:51;16.20;99.90
27707;DHT22;36332;51.384;0.040;2023-07-16T00:47:19;16.70;99.90
27707;DHT22;36332;51.384;0.040;2023-07-16T00:49:47;16.20;99.90
27707;DHT22;36332;51.384;0.040;2023-07-16T00:52:18;16.20;99.90
27707;DHT22;36332;51.384;0.040;2023-07-16T00:54:47;16.20;99.90
27707;DHT22;36332;51.384;0.040;2023-07-16T00:57:15;16.10;99.90
27707;DHT22;36332;51.384;0.040;2023-07-16T00:59:43;16.10;99.90
27707;DHT22;36332;51.384;0.040;2023-07-16T01:02:11;16.10;99.90
27707;DHT22;36332;51.384;0.040;2023-07-16T01:04:39;16.10;99.90
27707;DHT22;36332;51.384;0.040;2023-07-16T01:07:08;16.10;99.90
27707;DHT22;36332;51.384;0.040;2023-07-16T01:09:42;16.20;99.90
27707;DHT22;36332;51.384;0.040;2023-07-16T01:12:10;16.10;99.90
27707;DHT22;36332;51.384;0.040;2023-07-16T01:14:39;16.20;99.90
27707;DHT22;36332;51.384;0.040;2023-07-16T01:19:35;16.10;99.90
27707;DHT22;36332;51.384;0.040;2023-07-16T01:22:22;16.10;99.90
27707;DHT22;36332;51.384;0.040;2023-07-16T01:30:20;16.10;99.90
27707;DHT22;36332;51.384;0.040;2023-07-16T01:32:51;16.10;99.90
27707;DHT22;36332;51.384;0.040;2023-07-16T01:35:21;16.10;99.90
27707;DHT22;36332;51.384;0.040;2023-07-16T01:40:16;16.10;99.90
27707;DHT22;36332;51.384;0.040;2023-07-16T01:42:44;16.10;99.90
27707;DHT22;36332;51.384;0.040;2023-07-16T01:45:12;16.10;99.90
27707;DHT22;36332;51.384;0.040;2023-07-16T01:50:29;16.10;99.90
27707;DHT22;36332;51.384;0.040;2023-07-16T01:52:56;16.10;99.90
27707;DHT22;36332;51.384;0.040;2023-07-16T02:00:21;16.10;99.90
27707;DHT22;36332;51.384;0.040;2023-07-16T02:02:50;16.10;99.90
27707;DHT22;36332;51.384;0.040;2023-07-16T02:05:18;16.10;99.90
27707;DHT22;36332;51.384;0.040;2023-07-16T02:07:45;16.10;99.90
27707;DHT22;36332;51.384;0.040;2023-07-16T02:10:13;16.00;99.90
27707;DHT22;36332;51.384;0.040;2023-07-16T02:15:08;15.90;99.90
27707;DHT22;36332;51.384;0.040;2023-07-16T02:17:37;15.90;99.90
27707;DHT22;36332;51.384;0.040;2023-07-16T02:20:05;15.90;99.90
27707;DHT22;36332;51.384;0.040;2023-07-16T02:22:34;15.90;99.90
27707;DHT22;36332;51.384;0.040;2023-07-16T02:25:03;15.90;99.90
27707;DHT22;36332;51.384;0.040;2023-07-16T02:27:31;15.80;99.90
27707;DHT22;36332;51.384;0.040;2023-07-16T02:29:59;15.80;99.90
27707;DHT22;36332;51.384;0.040;2023-07-16T02:32:26;15.70;99.90
27707;DHT22;36332;51.384;0.040;2023-07-16T02:34:54;15.70;99.90
27707;DHT22;36332;51.384;0.040;2023-07-16T02:39:50;15.70;99.90
27707;DHT22;36332;51.384;0.040;2023-07-16T02:42:17;15.70;99.90
27707;DHT22;36332;51.384;0.040;2023-07-16T02:44:45;15.70;99.90
27707;DHT22;36332;51.384;0.040;2023-07-16T02:49:40;15.70;99.90
27707;DHT22;36332;51.384;0.040;2023-07-16T02:54:36;15.70;99.90
27707;DHT22;36332;51.384;0.040;2023-07-16T02:57:05;15.50;99.90
27707;DHT22;36332;51.384;0.040;2023-07-16T02:59:33;15.70;99.90
27707;DHT22;36332;51.384;0.040;2023-07-16T03:02:01;15.70;99.90
27707;DHT22;36332;51.384;0.040;2023-07-16T03:04:29;15.70;99.90
27707;DHT22;36332;51.384;0.040;2023-07-16T03:09:24;15.60;99.90
27707;DHT22;36332;51.384;0.040;2023-07-16T03:11:52;15.60;99.90
27707;DHT22;36332;51.384;0.040;2023-07-16T03:14:19;15.50;99.90
27707;DHT22;36332;51.384;0.040;2023-07-16T03:19:15;15.50;99.90
27707;DHT22;36332;51.384;0.040;2023-07-16T03:21:43;15.40;99.90
27707;DHT22;36332;51.384;0.040;2023-07-16T03:24:10;15.50;99.90
27707;DHT22;36332;51.384;0.040;2023-07-16T03:26:38;15.30;99.90
27707;DHT22;36332;51.384;0.040;2023-07-16T03:29:06;15.40;99.90
27707;DHT22;36332;51.384;0.040;2023-07-16T03:34:03;15.40;99.90
27707;DHT22;36332;51.384;0.040;2023-07-16T03:36:31;15.30;99.90
27707;DHT22;36332;51.384;0.040;2023-07-16T03:41:26;15.20;99.90
27707;DHT22;36332;51.384;0.040;2023-07-16T03:46:22;15.20;99.90
27707;DHT22;36332;51.384;0.040;2023-07-16T03:48:51;15.10;99.90
27707;DHT22;36332;51.384;0.040;2023-07-16T03:51:19;15.10;99.90
27707;DHT22;36332;51.384;0.040;2023-07-16T03:56:15;15.00;99.90
27707;DHT22;36332;51.384;0.040;2023-07-16T03:58:43;15.00;99.90
27707;DHT22;36332;51.384;0.040;2023-07-16T04:06:09;15.00;99.90
27707;DHT22;36332;51.384;0.040;2023-07-16T04:08:37;15.00;99.90
27707;DHT22;36332;51.384;0.040;2023-07-16T04:11:05;14.90;99.90
27707;DHT22;36332;51.384;0.040;2023-07-16T04:16:01;14.90;99.90
27707;DHT22;36332;51.384;0.040;2023-07-16T04:18:29;14.90;99.90
27707;DHT22;36332;51.384;0.040;2023-07-16T04:20:57;14.70;99.90
27707;DHT22;36332;51.384;0.040;2023-07-16T04:23:25;14.80;99.90
27707;DHT22;36332;51.384;0.040;2023-07-16T04:25:53;14.80;99.90
27707;DHT22;36332;51.384;0.040;2023-07-16T04:33:18;14.80;99.90
27707;DHT22;36332;51.384;0.040;2023-07-16T04:35:46;14.80;99.90
27707;DHT22;36332;51.384;0.040;2023-07-16T04:40:42;14.80;99.90
27707;DHT22;36332;51.384;0.040;2023-07-16T04:43:10;14.80;99.90
27707;DHT22;36332;51.384;0.040;2023-07-16T04:45:38;14.80;99.90
27707;DHT22;36332;51.384;0.040;2023-07-16T04:48:07;14.80;99.90
27707;DHT22;36332;51.384;0.040;2023-07-16T04:50:35;14.90;99.90
27707;DHT22;36332;51.384;0.040;2023-07-16T04:55:36;14.80;99.90
27707;DHT22;36332;51.384;0.040;2023-07-16T04:58:04;14.90;99.90
27707;DHT22;36332;51.384;0.040;2023-07-16T05:00:32;15.00;99.90
27707;DHT22;36332;51.384;0.040;2023-07-16T05:05:28;15.00;99.90
27707;DHT22;36332;51.384;0.040;2023-07-16T05:07:56;15.00;99.90
27707;DHT22;36332;51.384;0.040;2023-07-16T05:10:24;15.00;99.90
27707;DHT22;36332;51.384;0.040;2023-07-16T05:15:20;15.10;99.90
27707;DHT22;36332;51.384;0.040;2023-07-16T05:17:48;15.10;99.90
27707;DHT22;36332;51.384;0.040;2023-07-16T05:20:16;15.10;99.90
27707;DHT22;36332;51.384;0.040;2023-07-16T05:25:13;15.20;99.90
27707;DHT22;36332;51.384;0.040;2023-07-16T05:30:09;15.20;99.90
27707;DHT22;36332;51.384;0.040;2023-07-16T05:32:37;15.20;99.90
27707;DHT22;36332;51.384;0.040;2023-07-16T05:35:05;15.30;99.90
27707;DHT22;36332;51.384;0.040;2023-07-16T05:37:33;15.30;99.90
27707;DHT22;36332;51.384;0.040;2023-07-16T05:40:00;15.30;99.90
27707;DHT22;36332;51.384;0.040;2023-07-16T05:44:56;15.40;99.90
27707;DHT22;36332;51.384;0.040;2023-07-16T05:49:52;15.50;99.90
27707;DHT22;36332;51.384;0.040;2023-07-16T05:54:47;15.60;99.90
27707;DHT22;36332;51.384;0.040;2023-07-16T05:57:15;15.60;99.90
27707;DHT22;36332;51.384;0.040;2023-07-16T06:02:10;15.70;99.90
27707;DHT22;36332;51.384;0.040;2023-07-16T06:04:38;15.70;99.90
27707;DHT22;36332;51.384;0.040;2023-07-16T06:07:06;15.80;99.90
27707;DHT22;36332;51.384;0.040;2023-07-16T06:09:33;15.80;99.90
27707;DHT22;36332;51.384;0.040;2023-07-16T06:14:29;15.90;99.90
27707;DHT22;36332;51.384;0.040;2023-07-16T06:16:56;16.00;99.90
27707;DHT22;36332;51.384;0.040;2023-07-16T06:19:24;16.00;99.90
27707;DHT22;36332;51.384;0.040;2023-07-16T06:21:52;16.10;99.90
27707;DHT22;36332;51.384;0.040;2023-07-16T06:24:19;16.10;99.90
27707;DHT22;36332;51.384;0.040;2023-07-16T06:26:47;16.20;99.90
27707;DHT22;36332;51.384;0.040;2023-07-16T06:29:15;16.10;99.90
27707;DHT22;36332;51.384;0.040;2023-07-16T06:31:43;16.30;99.90
27707;DHT22;36332;51.384;0.040;2023-07-16T06:34:12;16.30;99.90
27707;DHT22;36332;51.384;0.040;2023-07-16T06:36:40;16.40;99.90
27707;DHT22;36332;51.384;0.040;2023-07-16T06:39:09;16.50;99.90
27707;DHT22;36332;51.384;0.040;2023-07-16T06:41:36;16.50;99.90
27707;DHT22;36332;51.384;0.040;2023-07-16T06:44:08;16.60;99.90
27707;DHT22;36332;51.384;0.040;2023-07-16T06:46:35;16.70;99.90
27707;DHT22;36332;51.384;0.040;2023-07-16T06:49:05;16.80;99.90
27707;DHT22;36332;51.384;0.040;2023-07-16T06:51:33;16.80;99.90
27707;DHT22;36332;51.384;0.040;2023-07-16T06:54:00;16.90;99.90
27707;DHT22;36332;51.384;0.040;2023-07-16T06:56:28;17.00;99.90
27707;DHT22;36332;51.384;0.040;2023-07-16T06:58:55;17.00;99.90
27707;DHT22;36332;51.384;0.040;2023-07-16T07:01:23;17.10;99.90
27707;DHT22;36332;51.384;0.040;2023-07-16T07:03:51;17.20;99.90
27707;DHT22;36332;51.384;0.040;2023-07-16T07:06:19;17.00;99.90
27707;DHT22;36332;51.384;0.040;2023-07-16T07:08:47;17.20;99.90
27707;DHT22;36332;51.384;0.040;2023-07-16T07:11:15;17.10;99.90
27707;DHT22;36332;51.384;0.040;2023-07-16T07:13:43;17.10;99.90
27707;DHT22;36332;51.384;0.040;2023-07-16T07:16:10;17.20;99.90
27707;DHT22;36332;51.384;0.040;2023-07-16T07:18:38;17.20;99.90
27707;DHT22;36332;51.384;0.040;2023-07-16T07:21:05;17.30;99.90
27707;DHT22;36332;51.384;0.040;2023-07-16T07:23:33;17.30;99.90
27707;DHT22;36332;51.384;0.040;2023-07-16T07:26:01;17.40;99.90
27707;DHT22;36332;51.384;0.040;2023-07-16T07:28:28;17.40;99.90
27707;DHT22;36332;51.384;0.040;2023-07-16T07:30:56;17.40;99.90
27707;DHT22;36332;51.384;0.040;2023-07-16T07:33:23;17.50;99.90
27707;DHT22;36332;51.384;0.040;2023-07-16T07:35:55;17.60;99.90
27707;DHT22;36332;51.384;0.040;2023-07-16T07:38:23;17.60;99.90
27707;DHT22;36332;51.384;0.040;2023-07-16T07:40:51;17.50;99.90
27707;DHT22;36332;51.384;0.040;2023-07-16T07:43:19;17.50;99.90
27707;DHT22;36332;51.384;0.040;2023-07-16T07:45:46;17.50;99.90
27707;DHT22;36332;51.384;0.040;2023-07-16T07:50:42;17.60;99.90
27707;DHT22;36332;51.384;0.040;2023-07-16T07:53:10;17.90;99.90
27707;DHT22;36332;51.384;0.040;2023-07-16T07:55:38;18.00;99.90
27707;DHT22;36332;51.384;0.040;2023-07-16T07:58:06;18.20;99.90
27707;DHT22;36332;51.384;0.040;2023-07-16T08:00:33;18.40;99.90
27707;DHT22;36332;51.384;0.040;2023-07-16T08:03:01;18.40;99.90
27707;DHT22;36332;51.384;0.040;2023-07-16T08:05:30;18.60;99.90
27707;DHT22;36332;51.384;0.040;2023-07-16T08:07:58;18.60;99.90
27707;DHT22;36332;51.384;0.040;2023-07-16T08:12:54;18.40;99.90
27707;DHT22;36332;51.384;0.040;2023-07-16T08:15:21;18.40;99.90
27707;DHT22;36332;51.384;0.040;2023-07-16T08:17:49;18.50;99.90
27707;DHT22;36332;51.384;0.040;2023-07-16T08:20:17;18.50;99.90
27707;DHT22;36332;51.384;0.040;2023-07-16T08:22:44;18.60;99.90
27707;DHT22;36332;51.384;0.040;2023-07-16T08:25:12;18.70;99.90
27707;DHT22;36332;51.384;0.040;2023-07-16T08:27:40;18.70;99.90
27707;DHT22;36332;51.384;0.040;2023-07-16T08:30:08;18.90;99.90
27707;DHT22;36332;51.384;0.040;2023-07-16T08:32:36;19.10;99.90
27707;DHT22;36332;51.384;0.040;2023-07-16T08:35:04;19.30;99.90
27707;DHT22;36332;51.384;0.040;2023-07-16T08:37:32;19.30;99.90
27707;DHT22;36332;51.384;0.040;2023-07-16T08:39:59;19.40;99.90
27707;DHT22;36332;51.384;0.040;2023-07-16T08:42:27;19.60;99.90
27707;DHT22;36332;51.384;0.040;2023-07-16T08:44:56;19.80;99.90
27707;DHT22;36332;51.384;0.040;2023-07-16T08:47:24;19.80;99.90
27707;DHT22;36332;51.384;0.040;2023-07-16T08:49:55;19.90;99.90
27707;DHT22;36332;51.384;0.040;2023-07-16T08:52:26;19.90;99.90
27707;DHT22;36332;51.384;0.040;2023-07-16T08:54:55;19.90;99.90
27707;DHT22;36332;51.384;0.040;2023-07-16T08:57:23;20.00;99.90
27707;DHT22;36332;51.384;0.040;2023-07-16T08:59:51;20.20;99.90
27707;DHT22;36332;51.384;0.040;2023-07-16T09:02:19;20.20;99.90
27707;DHT22;36332;51.384;0.040;2023-07-16T09:04:48;20.10;99.90
27707;DHT22;36332;51.384;0.040;2023-07-16T09:07:16;20.10;99.90
27707;DHT22;36332;51.384;0.040;2023-07-16T09:09:55;19.90;99.90
27707;DHT22;36332;51.384;0.040;2023-07-16T09:12:25;19.90;99.90
27707;DHT22;36332;51.384;0.040;2023-07-16T09:14:54;19.90;99.90
27707;DHT22;36332;51.384;0.040;2023-07-16T09:17:22;20.00;99.90
27707;DHT22;36332;51.384;0.040;2023-07-16T09:19:54;20.20;99.90
27707;DHT22;36332;51.384;0.040;2023-07-16T09:22:22;20.30;99.90
27707;DHT22;36332;51.384;0.040;2023-07-16T09:24:50;20.40;99.90
27707;DHT22;36332;51.384;0.040;2023-07-16T09:27:17;20.60;99.90
27707;DHT22;36332;51.384;0.040;2023-07-16T09:29:45;20.60;99.90
27707;DHT22;36332;51.384;0.040;2023-07-16T09:32:13;20.70;99.90
27707;DHT22;36332;51.384;0.040;2023-07-16T09:34:42;20.70;99.90
27707;DHT22;36332;51.384;0.040;2023-07-16T09:37:09;20.70;99.90
27707;DHT22;36332;51.384;0.040;2023-07-16T09:39:37;20.70;99.90
27707;DHT22;36332;51.384;0.040;2023-07-16T09:42:05;20.60;99.90
27707;DHT22;36332;51.384;0.040;2023-07-16T09:44:33;20.70;99.90
27707;DHT22;36332;51.384;0.040;2023-07-16T09:47:02;20.80;99.90
27707;DHT22;36332;51.384;0.040;2023-07-16T09:49:29;20.90;99.90
27707;DHT22;36332;51.384;0.040;2023-07-16T09:51:58;21.00;99.90
27707;DHT22;36332;51.384;0.040;2023-07-16T09:54:30;21.00;99.90
27707;DHT22;36332;51.384;0.040;2023-07-16T09:57:00;21.10;99.90
27707;DHT22;36332;51.384;0.040;2023-07-16T09:59:31;21.30;99.90
27707;DHT22;36332;51.384;0.040;2023-07-16T10:02:00;21.50;99.90
27707;DHT22;36332;51.384;0.040;2023-07-16T10:04:37;21.60;99.90
27707;DHT22;36332;51.384;0.040;2023-07-16T10:07:07;21.80;99.90
27707;DHT22;36332;51.384;0.040;2023-07-16T10:09:56;21.90;99.90
27707;DHT22;36332;51.384;0.040;2023-07-16T10:12:25;21.90;99.90
27707;DHT22;36332;51.384;0.040;2023-07-16T10:14:54;21.80;99.90
27707;DHT22;36332;51.384;0.040;2023-07-16T10:17:25;21.80;99.90
27707;DHT22;36332;51.384;0.040;2023-07-16T10:22:38;22.00;99.90
27707;DHT22;36332;51.384;0.040;2023-07-16T10:25:27;22.10;99.90
27707;DHT22;36332;51.384;0.040;2023-07-16T10:27:55;22.10;99.90
27707;DHT22;36332;51.384;0.040;2023-07-16T10:30:22;22.20;99.90
27707;DHT22;36332;51.384;0.040;2023-07-16T10:32:51;22.10;99.90
27707;DHT22;36332;51.384;0.040;2023-07-16T10:35:20;22.00;99.90
27707;DHT22;36332;51.384;0.040;2023-07-16T10:37:48;21.70;99.90
27707;DHT22;36332;51.384;0.040;2023-07-16T10:40:16;21.50;99.90
27707;DHT22;36332;51.384;0.040;2023-07-16T10:42:44;21.30;99.90
27707;DHT22;36332;51.384;0.040;2023-07-16T10:45:14;21.20;99.90
27707;DHT22;36332;51.384;0.040;2023-07-16T10:47:54;21.30;99.90
27707;DHT22;36332;51.384;0.040;2023-07-16T10:50:22;21.20;99.90
27707;DHT22;36332;51.384;0.040;2023-07-16T10:52:54;21.30;99.90
27707;DHT22;36332;51.384;0.040;2023-07-16T10:55:23;21.40;99.90
27707;DHT22;36332;51.384;0.040;2023-07-16T10:57:51;21.70;99.90
27707;DHT22;36332;51.384;0.040;2023-07-16T11:00:21;21.70;99.90
27707;DHT22;36332;51.384;0.040;2023-07-16T11:02:50;22.40;99.90
27707;DHT22;36332;51.384;0.040;2023-07-16T11:05:19;22.30;99.90
27707;DHT22;36332;51.384;0.040;2023-07-16T11:07:48;22.70;99.90
27707;DHT22;36332;51.384;0.040;2023-07-16T11:10:22;23.00;99.90
27707;DHT22;36332;51.384;0.040;2023-07-16T11:12:52;23.20;99.90
27707;DHT22;36332;51.384;0.040;2023-07-16T11:15:33;23.10;99.90
27707;DHT22;36332;51.384;0.040;2023-07-16T11:18:02;23.10;99.90
27707;DHT22;36332;51.384;0.040;2023-07-16T11:20:30;23.00;99.90
27707;DHT22;36332;51.384;0.040;2023-07-16T11:22:59;22.90;99.90
27707;DHT22;36332;51.384;0.040;2023-07-16T11:25:28;22.80;99.90
27707;DHT22;36332;51.384;0.040;2023-07-16T11:27:56;22.60;99.90
27707;DHT22;36332;51.384;0.040;2023-07-16T11:30:25;22.70;99.90
27707;DHT22;36332;51.384;0.040;2023-07-16T11:32:53;22.90;99.90
27707;DHT22;36332;51.384;0.040;2023-07-16T11:35:21;22.90;99.90
27707;DHT22;36332;51.384;0.040;2023-07-16T11:37:49;23.20;99.90
27707;DHT22;36332;51.384;0.040;2023-07-16T11:40:18;23.20;99.90
27707;DHT22;36332;51.384;0.040;2023-07-16T11:42:47;23.40;99.90
27707;DHT22;36332;51.384;0.040;2023-07-16T11:45:19;23.70;99.90
27707;DHT22;36332;51.384;0.040;2023-07-16T11:47:47;23.70;99.90
27707;DHT22;36332;51.384;0.040;2023-07-16T11:50:15;23.70;99.90
27707;DHT22;36332;51.384;0.040;2023-07-16T11:52:51;23.90;99.90
27707;DHT22;36332;51.384;0.040;2023-07-16T11:55:19;24.00;99.90
27707;DHT22;36332;51.384;0.040;2023-07-16T11:57:46;24.10;99.90
27707;DHT22;36332;51.384;0.040;2023-07-16T12:00:14;24.30;99.90
27707;DHT22;36332;51.384;0.040;2023-07-16T12:02:42;24.20;99.90
27707;DHT22;36332;51.384;0.040;2023-07-16T12:05:10;24.40;99.90
27707;DHT22;36332;51.384;0.040;2023-07-16T12:07:41;24.40;99.90
27707;DHT22;36332;51.384;0.040;2023-07-16T12:10:09;24.40;99.90
27707;DHT22;36332;51.384;0.040;2023-07-16T12:12:36;24.40;99.90
27707;DHT22;36332;51.384;0.040;2023-07-16T12:15:08;24.40;99.90
27707;DHT22;36332;51.384;0.040;2023-07-16T12:17:35;24.30;99.90
27707;DHT22;36332;51.384;0.040;2023-07-16T12:20:04;24.20;99.90
27707;DHT22;36332;51.384;0.040;2023-07-16T12:22:32;24.20;99.90
27707;DHT22;36332;51.384;0.040;2023-07-16T12:24:59;24.10;99.90
27707;DHT22;36332;51.384;0.040;2023-07-16T12:27:27;24.20;99.90
27707;DHT22;36332;51.384;0.040;2023-07-16T12:29:55;24.30;99.90
27707;DHT22;36332;51.384;0.040;2023-07-16T12:32:22;24.10;99.90
27707;DHT22;36332;51.384;0.040;2023-07-16T12:34:50;24.00;99.90
27707;DHT22;36332;51.384;0.040;2023-07-16T12:37:18;23.80;99.90
27707;DHT22;36332;51.384;0.040;2023-07-16T12:39:46;23.90;99.90
27707;DHT22;36332;51.384;0.040;2023-07-16T12:42:14;23.90;99.90
27707;DHT22;36332;51.384;0.040;2023-07-16T12:44:42;24.40;99.90
27707;DHT22;36332;51.384;0.040;2023-07-16T12:47:09;24.70;99.90
27707;DHT22;36332;51.384;0.040;2023-07-16T12:49:37;24.70;99.90
27707;DHT22;36332;51.384;0.040;2023-07-16T12:52:05;25.20;99.90
27707;DHT22;36332;51.384;0.040;2023-07-16T12:54:34;25.20;99.90
27707;DHT22;36332;51.384;0.040;2023-07-16T12:57:01;25.30;99.90
27707;DHT22;36332;51.384;0.040;2023-07-16T12:59:30;23.50;99.90
27707;DHT22;36332;51.384;0.040;2023-07-16T13:01:58;25.10;99.90
27707;DHT22;36332;51.384;0.040;2023-07-16T13:04:26;24.90;99.90
27707;DHT22;36332;51.384;0.040;2023-07-16T13:06:53;24.80;99.90
27707;DHT22;36332;51.384;0.040;2023-07-16T13:09:21;24.60;99.90
27707;DHT22;36332;51.384;0.040;2023-07-16T13:11:50;24.50;99.90
27707;DHT22;36332;51.384;0.040;2023-07-16T13:14:18;24.30;99.90
27707;DHT22;36332;51.384;0.040;2023-07-16T13:16:46;24.20;99.90
27707;DHT22;36332;51.384;0.040;2023-07-16T13:19:14;24.00;99.90
27707;DHT22;36332;51.384;0.040;2023-07-16T13:21:41;23.90;99.90
27707;DHT22;36332;51.384;0.040;2023-07-16T13:24:09;23.80;99.90
27707;DHT22;36332;51.384;0.040;2023-07-16T13:26:36;24.00;99.90
27707;DHT22;36332;51.384;0.040;2023-07-16T13:29:04;24.00;99.90
27707;DHT22;36332;51.384;0.040;2023-07-16T13:31:32;24.00;99.90
27707;DHT22;36332;51.384;0.040;2023-07-16T13:34:00;24.20;99.90
27707;DHT22;36332;51.384;0.040;2023-07-16T13:36:27;24.40;99.90
27707;DHT22;36332;51.384;0.040;2023-07-16T13:38:55;23.40;99.90
27707;DHT22;36332;51.384;0.040;2023-07-16T13:41:22;24.60;99.90
27707;DHT22;36332;51.384;0.040;2023-07-16T13:43:50;24.70;99.90
27707;DHT22;36332;51.384;0.040;2023-07-16T13:46:18;24.90;99.90
27707;DHT22;36332;51.384;0.040;2023-07-16T13:48:46;25.00;99.90
27707;DHT22;36332;51.384;0.040;2023-07-16T13:51:25;25.00;99.90
27707;DHT22;36332;51.384;0.040;2023-07-16T13:53:53;24.90;99.90
27707;DHT22;36332;51.384;0.040;2023-07-16T13:56:21;25.10;99.90
27707;DHT22;36332;51.384;0.040;2023-07-16T13:58:49;25.20;99.90
27707;DHT22;36332;51.384;0.040;2023-07-16T14:01:18;25.40;99.90
27707;DHT22;36332;51.384;0.040;2023-07-16T14:03:46;25.40;99.80
27707;DHT22;36332;51.384;0.040;2023-07-16T14:06:14;25.40;99.90
27707;DHT22;36332;51.384;0.040;2023-07-16T14:08:42;25.40;99.90
27707;DHT22;36332;51.384;0.040;2023-07-16T14:11:10;25.20;99.90
27707;DHT22;36332;51.384;0.040;2023-07-16T14:13:37;24.70;99.90
27707;DHT22;36332;51.384;0.040;2023-07-16T14:16:05;24.20;99.90
27707;DHT22;36332;51.384;0.040;2023-07-16T14:18:32;23.80;99.90
27707;DHT22;36332;51.384;0.040;2023-07-16T14:21:00;23.70;99.90
27707;DHT22;36332;51.384;0.040;2023-07-16T14:23:30;23.70;99.90
27707;DHT22;36332;51.384;0.040;2023-07-16T14:25:58;23.60;99.90
27707;DHT22;36332;51.384;0.040;2023-07-16T14:28:25;23.50;99.90
27707;DHT22;36332;51.384;0.040;2023-07-16T14:30:54;23.60;99.90
27707;DHT22;36332;51.384;0.040;2023-07-16T14:33:22;23.60;99.90
27707;DHT22;36332;51.384;0.040;2023-07-16T14:35:50;23.70;99.90
27707;DHT22;36332;51.384;0.040;2023-07-16T14:38:17;23.60;99.90
27707;DHT22;36332;51.384;0.040;2023-07-16T14:40:45;23.50;99.90
27707;DHT22;36332;51.384;0.040;2023-07-16T14:43:15;23.80;99.90
27707;DHT22;36332;51.384;0.040;2023-07-16T14:45:42;24.20;99.90
27707;DHT22;36332;51.384;0.040;2023-07-16T14:48:10;24.30;99.90
27707;DHT22;36332;51.384;0.040;2023-07-16T14:50:38;24.90;99.90
27707;DHT22;36332;51.384;0.040;2023-07-16T14:53:06;25.20;99.90
27707;DHT22;36332;51.384;0.040;2023-07-16T14:55:34;25.50;99.40
27707;DHT22;36332;51.384;0.040;2023-07-16T14:58:01;25.60;99.50
27707;DHT22;36332;51.384;0.040;2023-07-16T15:00:29;25.30;98.70
27707;DHT22;36332;51.384;0.040;2023-07-16T15:02:57;25.30;99.20
27707;DHT22;36332;51.384;0.040;2023-07-16T15:05:25;25.20;99.10
27707;DHT22;36332;51.384;0.040;2023-07-16T15:07:53;25.00;99.20
27707;DHT22;36332;51.384;0.040;2023-07-16T15:10:20;24.80;99.20
27707;DHT22;36332;51.384;0.040;2023-07-16T15:12:48;25.10;98.50
27707;DHT22;36332;51.384;0.040;2023-07-16T15:15:15;25.10;99.00
27707;DHT22;36332;51.384;0.040;2023-07-16T15:17:43;25.80;97.20
27707;DHT22;36332;51.384;0.040;2023-07-16T15:20:11;25.90;97.70
27707;DHT22;36332;51.384;0.040;2023-07-16T15:22:39;26.00;97.00
27707;DHT22;36332;51.384;0.040;2023-07-16T15:25:07;26.20;96.30
27707;DHT22;36332;51.384;0.040;2023-07-16T15:27:35;26.50;95.60
27707;DHT22;36332;51.384;0.040;2023-07-16T15:30:02;26.50;95.10
27707;DHT22;36332;51.384;0.040;2023-07-16T15:32:31;27.00;94.80
27707;DHT22;36332;51.384;0.040;2023-07-16T15:34:59;27.40;94.40
27707;DHT22;36332;51.384;0.040;2023-07-16T15:37:26;29.00;94.80
27707;DHT22;36332;51.384;0.040;2023-07-16T15:39:54;27.50;93.20
27707;DHT22;36332;51.384;0.040;2023-07-16T15:42:21;27.00;93.50
27707;DHT22;36332;51.384;0.040;2023-07-16T15:44:50;26.10;94.20
27707;DHT22;36332;51.384;0.040;2023-07-16T15:47:18;26.10;94.40
27707;DHT22;36332;51.384;0.040;2023-07-16T15:49:46;26.60;95.10
27707;DHT22;36332;51.384;0.040;2023-07-16T15:52:14;25.60;94.90
27707;DHT22;36332;51.384;0.040;2023-07-16T15:54:41;25.40;94.90
27707;DHT22;36332;51.384;0.040;2023-07-16T15:57:09;25.50;94.90
27707;DHT22;36332;51.384;0.040;2023-07-16T15:59:36;25.70;94.60
27707;DHT22;36332;51.384;0.040;2023-07-16T16:02:04;25.80;94.10
27707;DHT22;36332;51.384;0.040;2023-07-16T16:04:32;26.10;93.50
27707;DHT22;36332;51.384;0.040;2023-07-16T16:07:00;26.60;92.50
27707;DHT22;36332;51.384;0.040;2023-07-16T16:09:30;26.60;92.80
27707;DHT22;36332;51.384;0.040;2023-07-16T16:11:57;24.50;92.40
27707;DHT22;36332;51.384;0.040;2023-07-16T16:14:26;26.20;92.90
27707;DHT22;36332;51.384;0.040;2023-07-16T16:16:57;26.00;93.00
27707;DHT22;36332;51.384;0.040;2023-07-16T16:19:35;25.60;93.20
27707;DHT22;36332;51.384;0.040;2023-07-16T16:22:03;25.30;93.20
27707;DHT22;36332;51.384;0.040;2023-07-16T16:24:30;24.80;93.40
27707;DHT22;36332;51.384;0.040;2023-07-16T16:26:58;24.40;93.90
27707;DHT22;36332;51.384;0.040;2023-07-16T16:29:25;24.30;93.80
27707;DHT22;36332;51.384;0.040;2023-07-16T16:31:53;24.40;93.60
27707;DHT22;36332;51.384;0.040;2023-07-16T16:34:21;24.40;93.80
27707;DHT22;36332;51.384;0.040;2023-07-16T16:36:49;24.40;94.10
27707;DHT22;36332;51.384;0.040;2023-07-16T16:39:16;24.30;94.40
27707;DHT22;36332;51.384;0.040;2023-07-16T16:41:44;23.90;94.30
27707;DHT22;36332;51.384;0.040;2023-07-16T16:44:13;24.00;94.70
27707;DHT22;36332;51.384;0.040;2023-07-16T16:46:41;23.80;95.00
27707;DHT22;36332;51.384;0.040;2023-07-16T16:49:08;23.60;95.50
27707;DHT22;36332;51.384;0.040;2023-07-16T16:51:36;23.50;96.00
27707;DHT22;36332;51.384;0.040;2023-07-16T16:54:03;23.20;96.40
27707;DHT22;36332;51.384;0.040;2023-07-16T16:56:31;22.90;97.20
27707;DHT22;36332;51.384;0.040;2023-07-16T16:58:59;22.30;98.30
27707;DHT22;36332;51.384;0.040;2023-07-16T17:01:26;22.00;98.80
27707;DHT22;36332;51.384;0.040;2023-07-16T17:03:54;21.80;99.20
27707;DHT22;36332;51.384;0.040;2023-07-16T17:06:24;21.80;99.90
27707;DHT22;36332;51.384;0.040;2023-07-16T17:08:51;21.70;99.90
27707;DHT22;36332;51.384;0.040;2023-07-16T17:13:47;21.70;99.90